createdAt,value
2023-11-11T00:02:19.203Z,26.08
2023-11-11T00:04:46.211Z,25.55
2023-11-11T00:07:13.247Z,26.30
2023-11-11T00:09:40.182Z,25.80
2023-11-11T00:12:08.858Z,25.08
2023-11-11T00:14:36.216Z,25.88
2023-11-11T00:17:03.109Z,23.40
2023-11-11T00:19:30.812Z,24.85
2023-11-11T00:21:57.866Z,25.85
2023-11-11T00:24:24.772Z,24.17
2023-11-11T00:26:51.639Z,25.63
2023-11-11T00:29:18.614Z,23.42
2023-11-11T00:31:49.456Z,20.65
2023-11-11T00:34:20.634Z,21.33
2023-11-11T00:36:50.142Z,21.00
2023-11-11T00:39:17.738Z,20.45
2023-11-11T00:41:45.010Z,21.95
2023-11-11T00:44:12.197Z,20.60
2023-11-11T00:46:42.479Z,21.02
2023-11-11T00:49:10.400Z,21.10
2023-11-11T00:51:40.690Z,21.73
2023-11-11T00:54:11.532Z,21.10
2023-11-11T00:56:39.775Z,21.83
2023-11-11T00:59:06.921Z,21.50
2023-11-11T01:01:38.053Z,20.60
2023-11-11T01:04:06.409Z,20.63
2023-11-11T01:06:34.948Z,21.60
2023-11-11T01:09:02.431Z,21.30
2023-11-11T01:11:29.656Z,21.33
2023-11-11T01:13:56.629Z,19.85
2023-11-11T01:16:23.719Z,21.05
2023-11-11T01:18:50.800Z,19.48
2023-11-11T01:21:18.985Z,19.90
2023-11-11T01:23:46.015Z,19.05
2023-11-11T01:26:13.296Z,17.27
2023-11-11T01:28:40.655Z,14.40
2023-11-11T01:31:07.788Z,15.43
2023-11-11T01:33:34.837Z,15.45
2023-11-11T01:36:05.250Z,14.27
2023-11-11T01:38:32.273Z,15.93
2023-11-11T01:40:59.607Z,13.52
2023-11-11T01:43:26.612Z,15.07
2023-11-11T01:45:56.698Z,13.80
2023-11-11T01:48:23.932Z,14.00
2023-11-11T01:50:51.347Z,14.38
2023-11-11T01:53:19.285Z,13.77
2023-11-11T01:55:47.305Z,14.60
2023-11-11T01:58:16.848Z,14.02
2023-11-11T02:00:45.222Z,14.32
2023-11-11T02:03:13.308Z,14.13
2023-11-11T02:05:41.340Z,13.18
2023-11-11T02:08:08.932Z,13.10
2023-11-11T02:10:36.374Z,12.85
2023-11-11T02:13:03.802Z,12.70
2023-11-11T02:15:31.061Z,12.63
2023-11-11T02:18:04.313Z,12.02
2023-11-11T02:23:02.972Z,11.85
2023-11-11T02:25:31.021Z,13.38
2023-11-11T02:27:58.136Z,11.55
2023-11-11T02:30:25.029Z,11.70
2023-11-11T02:32:51.947Z,12.30
2023-11-11T02:35:18.990Z,11.43
2023-11-11T02:37:46.206Z,11.05
2023-11-11T02:40:14.334Z,9.75
2023-11-11T02:42:43.092Z,11.32
2023-11-11T02:45:11.645Z,9.82
2023-11-11T02:47:39.045Z,9.20
2023-11-11T02:50:06.444Z,9.65
2023-11-11T02:52:33.455Z,9.40
2023-11-11T02:55:00.383Z,9.60
2023-11-11T02:57:28.362Z,8.80
2023-11-11T02:59:55.264Z,9.30
2023-11-11T03:02:24.227Z,8.75
2023-11-11T03:04:51.280Z,7.90
2023-11-11T03:07:18.671Z,8.30
2023-11-11T03:09:45.836Z,5.88
2023-11-11T03:12:13.043Z,6.88
2023-11-11T03:14:41.664Z,6.03
2023-11-11T03:17:09.701Z,5.22
2023-11-11T03:19:36.822Z,4.65
2023-11-11T03:22:03.895Z,4.00
2023-11-11T03:24:32.397Z,4.38
2023-11-11T03:26:59.343Z,4.13
2023-11-11T03:29:26.871Z,3.47
2023-11-11T03:31:53.790Z,3.50
2023-11-11T03:34:20.780Z,3.33
2023-11-11T03:36:47.683Z,3.10
2023-11-11T03:39:15.140Z,3.20
2023-11-11T03:41:42.027Z,3.08
2023-11-11T03:44:10.344Z,2.78
2023-11-11T03:46:37.435Z,3.10
2023-11-11T03:49:04.749Z,2.83
2023-11-11T03:51:31.727Z,2.85
2023-11-11T03:53:58.664Z,2.08
2023-11-11T03:56:28.239Z,2.05
2023-11-11T03:58:55.132Z,2.00
2023-11-11T04:01:22.106Z,2.30
2023-11-11T04:03:49.100Z,2.25
2023-11-11T04:06:16.066Z,1.83
2023-11-11T04:08:43.176Z,1.67
2023-11-11T04:11:11.136Z,2.10
2023-11-11T04:13:42.335Z,1.63
2023-11-11T04:16:11.168Z,1.88
2023-11-11T04:18:38.932Z,1.30
2023-11-11T04:21:06.385Z,1.67
2023-11-11T04:23:33.261Z,1.20
2023-11-11T04:26:02.193Z,1.58
2023-11-11T04:28:29.210Z,0.82
2023-11-11T04:30:56.236Z,1.17
2023-11-11T04:33:24.098Z,1.10
2023-11-11T04:35:53.155Z,1.20
2023-11-11T04:38:21.600Z,1.00
2023-11-11T04:40:50.946Z,1.40
2023-11-11T04:43:19.937Z,1.05
2023-11-11T04:45:47.448Z,0.98
2023-11-11T04:48:14.490Z,1.30
2023-11-11T04:50:41.580Z,1.00
2023-11-11T04:53:08.528Z,0.70
2023-11-11T04:55:37.203Z,0.90
2023-11-11T04:58:05.165Z,1.17
2023-11-11T05:00:32.518Z,1.08
2023-11-11T05:03:01.774Z,1.00
2023-11-11T05:05:28.900Z,0.77
2023-11-11T05:07:55.866Z,1.00
2023-11-11T05:10:23.323Z,0.70
2023-11-11T05:12:52.651Z,0.82
2023-11-11T05:15:20.652Z,0.60
2023-11-11T05:17:47.939Z,0.40
2023-11-11T05:20:15.755Z,0.70
2023-11-11T05:22:43.325Z,0.40
2023-11-11T05:25:12.955Z,0.60
2023-11-11T05:27:40.861Z,0.60
2023-11-11T05:30:12.876Z,0.60
2023-11-11T05:32:39.854Z,0.50
2023-11-11T05:35:07.222Z,1.30
2023-11-11T05:37:36.889Z,0.25
2023-11-11T05:40:08.029Z,0.40
2023-11-11T05:42:34.939Z,0.32
2023-11-11T05:45:02.038Z,0.47
2023-11-11T05:47:29.598Z,0.45
2023-11-11T05:49:56.821Z,0.40
2023-11-11T05:52:23.759Z,0.88
2023-11-11T05:54:50.854Z,0.70
2023-11-11T05:57:17.732Z,0.40
2023-11-11T05:59:44.654Z,0.30
2023-11-11T06:02:11.528Z,0.25
2023-11-11T06:04:38.578Z,0.60
2023-11-11T06:07:05.684Z,0.50
2023-11-11T06:09:33.959Z,0.40
2023-11-11T06:12:01.007Z,0.40
2023-11-11T06:14:28.568Z,0.68
2023-11-11T06:16:55.665Z,0.63
2023-11-11T06:19:24.926Z,0.55
2023-11-11T06:21:52.230Z,0.50
2023-11-11T06:24:19.517Z,0.32
2023-11-11T06:26:46.644Z,0.40
2023-11-11T06:29:13.644Z,0.60
2023-11-11T06:31:40.532Z,0.70
2023-11-11T06:34:08.217Z,0.50
2023-11-11T06:36:35.774Z,0.60
2023-11-11T06:39:02.707Z,1.08
2023-11-11T06:41:29.550Z,0.73
2023-11-11T06:43:56.473Z,0.60
2023-11-11T06:46:23.695Z,0.60
2023-11-11T06:48:50.902Z,0.60
2023-11-11T06:51:17.988Z,0.60
2023-11-11T06:53:44.940Z,0.40
2023-11-11T06:56:16.765Z,0.55
2023-11-11T06:58:44.398Z,0.85
2023-11-11T07:01:11.562Z,0.60
2023-11-11T07:03:40.505Z,0.90
2023-11-11T07:06:07.803Z,0.65
2023-11-11T07:08:34.772Z,0.80
2023-11-11T07:11:02.218Z,1.23
2023-11-11T07:13:29.213Z,0.95
2023-11-11T07:15:56.279Z,1.08
2023-11-11T07:18:24.261Z,1.00
2023-11-11T07:20:51.284Z,1.25
2023-11-11T07:23:18.175Z,1.08
2023-11-11T07:25:45.100Z,1.80
2023-11-11T07:28:12.204Z,0.95
2023-11-11T07:30:40.837Z,1.10
2023-11-11T07:33:08.969Z,0.90
2023-11-11T07:35:37.554Z,2.05
2023-11-11T07:38:07.499Z,1.25
2023-11-11T07:40:34.636Z,1.30
2023-11-11T07:43:01.672Z,1.20
2023-11-11T07:45:28.712Z,1.20
2023-11-11T07:47:55.894Z,1.20
2023-11-11T07:50:23.313Z,1.50
2023-11-11T07:52:51.026Z,1.20
2023-11-11T07:55:18.041Z,1.30
2023-11-11T08:00:20.055Z,1.10
2023-11-11T08:02:49.106Z,1.48
2023-11-11T08:05:17.937Z,1.83
2023-11-11T08:07:45.054Z,1.20
2023-11-11T08:10:12.145Z,0.98
2023-11-11T08:12:39.752Z,1.00
2023-11-11T08:15:07.695Z,1.23
2023-11-11T08:17:35.228Z,1.40
2023-11-11T08:20:03.513Z,1.02
2023-11-11T08:22:31.593Z,1.40
2023-11-11T08:24:59.685Z,1.08
2023-11-11T08:27:27.478Z,0.85
2023-11-11T08:29:54.606Z,1.35
2023-11-11T08:32:21.494Z,2.13
2023-11-11T08:34:48.372Z,1.30
2023-11-11T08:37:15.268Z,1.00
2023-11-11T08:39:43.075Z,1.63
2023-11-11T08:42:09.944Z,1.23
2023-11-11T08:44:36.829Z,1.23
2023-11-11T08:47:03.952Z,1.27
2023-11-11T08:49:31.017Z,1.20
2023-11-11T08:51:57.996Z,1.25
2023-11-11T08:54:24.884Z,1.02
2023-11-11T08:56:51.972Z,0.95
2023-11-11T08:59:19.857Z,0.63
2023-11-11T09:01:46.862Z,0.73
2023-11-11T09:04:13.887Z,0.80
2023-11-11T09:06:41.092Z,0.90
2023-11-11T09:09:08.315Z,1.00
2023-11-11T09:11:38.368Z,0.82
2023-11-11T09:14:07.926Z,0.95
2023-11-11T09:16:34.970Z,0.93
2023-11-11T09:19:06.609Z,2.03
2023-11-11T09:21:33.589Z,1.38
2023-11-11T09:24:00.593Z,1.10
2023-11-11T09:26:27.865Z,1.05
2023-11-11T09:28:54.936Z,2.47
2023-11-11T09:31:22.364Z,1.17
2023-11-11T09:33:49.615Z,1.17
2023-11-11T09:36:19.890Z,1.23
2023-11-11T09:38:47.637Z,1.13
2023-11-11T09:41:14.947Z,0.90
2023-11-11T09:43:41.834Z,0.85
2023-11-11T09:46:16.426Z,1.15
2023-11-11T09:48:44.082Z,1.45
2023-11-11T09:51:13.450Z,1.10
2023-11-11T09:53:42.855Z,1.00
2023-11-11T09:57:02.978Z,0.95
2023-11-11T09:59:00.896Z,1.50
2023-11-11T10:01:28.690Z,1.20
2023-11-11T10:03:56.878Z,1.30
2023-11-11T10:06:26.257Z,0.95
2023-11-11T10:08:53.613Z,1.13
2023-11-11T10:11:20.591Z,1.30
2023-11-11T10:13:48.364Z,1.33
2023-11-11T10:16:19.262Z,1.30
2023-11-11T10:18:47.481Z,1.00
2023-11-11T10:21:17.675Z,1.08
2023-11-11T10:23:51.809Z,1.67
2023-11-11T10:26:21.241Z,1.20
2023-11-11T10:28:49.874Z,1.23
2023-11-11T10:31:23.069Z,1.70
2023-11-11T10:33:51.479Z,1.73
2023-11-11T10:36:19.425Z,1.95
2023-11-11T10:38:47.658Z,2.08
2023-11-11T10:41:15.596Z,1.90
2023-11-11T10:43:45.871Z,2.13
2023-11-11T10:46:13.498Z,2.20
2023-11-11T10:48:41.909Z,3.15
2023-11-11T10:51:09.715Z,3.20
2023-11-11T10:53:38.740Z,2.90
2023-11-11T10:56:07.013Z,2.88
2023-11-11T10:58:39.399Z,3.70
2023-11-11T11:01:06.768Z,2.53
2023-11-11T11:03:35.747Z,3.40
2023-11-11T11:06:15.037Z,3.22
2023-11-11T11:08:53.780Z,3.85
2023-11-11T11:11:36.005Z,3.75
2023-11-11T11:14:20.740Z,3.30
2023-11-11T11:16:48.751Z,3.78
2023-11-11T11:19:20.496Z,4.05
2023-11-11T11:21:53.938Z,3.00
2023-11-11T11:24:20.849Z,2.95
2023-11-11T11:26:49.184Z,3.15
2023-11-11T11:29:18.412Z,2.58
2023-11-11T11:32:10.578Z,2.72
2023-11-11T11:34:38.571Z,2.58
2023-11-11T11:37:11.006Z,2.60
2023-11-11T11:39:49.975Z,2.05
2023-11-11T11:42:25.579Z,2.30
2023-11-11T11:44:55.452Z,2.20
2023-11-11T11:47:23.900Z,1.90
2023-11-11T11:49:50.997Z,1.35
2023-11-11T11:52:20.597Z,1.38
2023-11-11T11:54:48.116Z,0.80
2023-11-11T11:57:15.504Z,1.63
2023-11-11T11:59:43.063Z,1.77
2023-11-11T12:02:13.575Z,1.63
2023-11-11T12:04:41.049Z,1.30
2023-11-11T12:07:10.748Z,1.17
2023-11-11T12:09:38.621Z,0.88
2023-11-11T12:12:11.724Z,1.63
2023-11-11T12:17:06.156Z,0.88
2023-11-11T12:19:36.394Z,1.45
2023-11-11T12:22:05.286Z,1.30
2023-11-11T12:24:33.144Z,1.42
2023-11-11T12:27:03.151Z,1.30
2023-11-11T12:29:30.906Z,0.75
2023-11-11T12:31:58.465Z,0.80
2023-11-11T12:34:29.625Z,0.93
2023-11-11T12:36:56.975Z,1.55
2023-11-11T12:39:27.394Z,0.80
2023-11-11T12:41:57.943Z,1.20
2023-11-11T12:44:26.172Z,1.00
2023-11-11T12:46:54.386Z,0.85
2023-11-11T12:49:29.792Z,0.70
2023-11-11T12:52:00.568Z,0.70
2023-11-11T12:54:33.417Z,0.80
2023-11-11T12:57:01.586Z,1.02
2023-11-11T12:59:28.691Z,0.80
2023-11-11T13:02:01.445Z,1.13
2023-11-11T13:04:31.491Z,0.50
2023-11-11T13:07:01.984Z,0.80
2023-11-11T13:09:45.240Z,0.70
2023-11-11T13:12:12.471Z,0.50
2023-11-11T13:14:42.534Z,0.80
2023-11-11T13:17:09.479Z,0.60
2023-11-11T13:19:36.809Z,0.55
2023-11-11T13:22:05.661Z,0.70
2023-11-11T13:24:33.279Z,0.60
2023-11-11T13:27:00.376Z,0.57
2023-11-11T13:29:28.094Z,0.50
2023-11-11T13:31:57.184Z,0.65
2023-11-11T13:34:27.671Z,0.68
2023-11-11T13:36:55.033Z,0.63
2023-11-11T13:39:36.469Z,0.90
2023-11-11T13:42:12.491Z,0.82
2023-11-11T13:44:39.621Z,0.95
2023-11-11T13:47:07.130Z,1.00
2023-11-11T13:49:34.162Z,0.70
2023-11-11T13:52:01.619Z,0.90
2023-11-11T13:54:28.664Z,0.60
2023-11-11T13:56:58.253Z,0.98
2023-11-11T13:59:25.541Z,0.95
2023-11-11T14:01:53.023Z,1.10
2023-11-11T14:04:20.408Z,1.05
2023-11-11T14:06:47.507Z,1.25
2023-11-11T14:09:15.268Z,1.20
2023-11-11T14:11:43.591Z,1.40
2023-11-11T14:14:10.792Z,1.00
2023-11-11T14:16:39.056Z,1.05
2023-11-11T14:19:11.202Z,1.15
2023-11-11T14:21:38.062Z,1.00
2023-11-11T14:24:07.804Z,1.13
2023-11-11T14:26:34.880Z,1.00
2023-11-11T14:29:01.843Z,0.98
2023-11-11T14:31:30.588Z,1.15
2023-11-11T14:34:03.860Z,1.08
2023-11-11T14:36:38.472Z,1.38
2023-11-11T14:39:06.544Z,1.13
2023-11-11T14:41:36.585Z,0.90
2023-11-11T14:44:04.222Z,0.82
2023-11-11T14:46:34.304Z,1.40
2023-11-11T14:49:01.520Z,1.58
2023-11-11T14:51:32.575Z,1.05
2023-11-11T14:53:59.421Z,1.75
2023-11-11T14:56:27.800Z,1.45
2023-11-11T14:58:54.683Z,1.10
2023-11-11T15:01:21.621Z,1.20
2023-11-11T15:03:48.694Z,1.23
2023-11-11T15:06:15.701Z,1.17
2023-11-11T15:08:44.806Z,1.35
2023-11-11T15:11:12.318Z,1.02
2023-11-11T15:13:40.865Z,1.08
2023-11-11T15:16:11.222Z,0.90
2023-11-11T15:18:39.576Z,0.80
2023-11-11T15:21:08.392Z,0.98
2023-11-11T15:23:36.617Z,0.90
2023-11-11T15:26:06.529Z,1.08
2023-11-11T15:28:34.070Z,1.38
2023-11-11T15:31:01.072Z,1.35
2023-11-11T15:33:29.597Z,1.23
2023-11-11T15:35:57.235Z,1.25
2023-11-11T15:38:25.216Z,1.08
2023-11-11T15:40:52.696Z,0.98
2023-11-11T15:43:19.933Z,1.20
2023-11-11T15:45:46.907Z,1.20
2023-11-11T15:48:13.918Z,1.20
2023-11-11T15:50:42.035Z,0.90
2023-11-11T15:53:09.878Z,1.13
2023-11-11T15:55:36.822Z,1.48
2023-11-11T15:58:03.706Z,1.30
2023-11-11T16:00:30.637Z,1.27
2023-11-11T16:02:58.251Z,1.20
2023-11-11T16:05:26.815Z,1.50
2023-11-11T16:07:53.919Z,1.50
2023-11-11T16:10:21.174Z,1.42
2023-11-11T16:12:48.056Z,1.50
2023-11-11T16:15:15.039Z,1.67
2023-11-11T16:17:42.018Z,1.10
2023-11-11T16:20:12.860Z,1.50
2023-11-11T16:22:39.885Z,1.33
2023-11-11T16:25:11.442Z,1.10
2023-11-11T16:27:38.613Z,1.20
2023-11-11T16:30:08.725Z,1.23
2023-11-11T16:32:35.726Z,1.40
2023-11-11T16:35:03.066Z,1.30
2023-11-11T16:37:30.670Z,1.27
2023-11-11T16:39:57.810Z,1.85
2023-11-11T16:42:24.736Z,2.10
2023-11-11T16:44:51.617Z,1.88
2023-11-11T16:47:23.077Z,2.28
2023-11-11T16:49:50.334Z,2.28
2023-11-11T16:52:18.203Z,2.85
2023-11-11T16:54:46.554Z,2.25
2023-11-11T16:57:13.459Z,2.30
2023-11-11T16:59:40.418Z,1.95
2023-11-11T17:02:07.626Z,2.20
2023-11-11T17:04:34.614Z,2.33
2023-11-11T17:07:03.703Z,2.20
2023-11-11T17:09:32.661Z,2.42
2023-11-11T17:11:59.524Z,2.58
2023-11-11T17:14:28.217Z,2.13
2023-11-11T17:16:55.244Z,2.10
2023-11-11T17:19:22.140Z,2.10
2023-11-11T17:21:49.498Z,2.42
2023-11-11T17:24:16.943Z,1.85
2023-11-11T17:26:43.904Z,2.15
2023-11-11T17:29:11.062Z,2.42
2023-11-11T17:31:38.274Z,2.42
2023-11-11T17:34:05.367Z,2.08
2023-11-11T17:36:32.729Z,1.80
2023-11-11T17:38:59.760Z,2.53
2023-11-11T17:41:27.528Z,2.47
2023-11-11T17:43:54.581Z,2.90
2023-11-11T17:46:22.944Z,2.20
2023-11-11T17:48:50.908Z,2.53
2023-11-11T17:51:19.894Z,2.88
2023-11-11T17:53:48.567Z,2.60
2023-11-11T17:56:26.804Z,2.40
2023-11-11T17:58:54.089Z,3.05
2023-11-11T18:01:21.886Z,3.28
2023-11-11T18:03:49.146Z,2.55
2023-11-11T18:06:16.270Z,2.63
2023-11-11T18:08:46.224Z,3.13
2023-11-11T18:11:13.515Z,3.30
2023-11-11T18:13:40.734Z,3.40
2023-11-11T18:16:14.956Z,3.10
2023-11-11T18:18:44.862Z,2.90
2023-11-11T18:21:15.636Z,3.95
2023-11-11T18:23:42.824Z,3.42
2023-11-11T18:26:09.897Z,4.32
2023-11-11T18:28:37.282Z,3.13
2023-11-11T18:31:04.513Z,3.30
2023-11-11T18:33:32.446Z,3.42
2023-11-11T18:35:59.427Z,3.55
2023-11-11T18:38:26.413Z,3.15
2023-11-11T18:40:53.312Z,3.92
2023-11-11T18:43:20.203Z,4.00
2023-11-11T18:45:47.477Z,3.63
2023-11-11T18:48:14.361Z,4.38
2023-11-11T18:50:41.819Z,4.40
2023-11-11T18:53:08.939Z,4.07
2023-11-11T18:55:35.915Z,4.40
2023-11-11T18:58:03.117Z,4.40
2023-11-11T19:00:30.077Z,4.05
2023-11-11T19:02:57.172Z,4.85
2023-11-11T19:05:28.333Z,4.68
2023-11-11T19:07:58.415Z,4.78
2023-11-11T19:10:25.732Z,5.60
2023-11-11T19:12:54.417Z,4.40
2023-11-11T19:15:21.572Z,4.90
2023-11-11T19:17:48.781Z,4.95
2023-11-11T19:20:21.171Z,5.65
2023-11-11T19:22:49.425Z,4.93
2023-11-11T19:25:17.106Z,6.38
2023-11-11T19:27:45.431Z,5.90
2023-11-11T19:30:12.780Z,5.55
2023-11-11T19:32:39.953Z,6.75
2023-11-11T19:35:11.220Z,6.50
2023-11-11T19:37:39.270Z,6.95
2023-11-11T19:40:07.302Z,7.85
2023-11-11T19:42:34.224Z,6.90
2023-11-11T19:45:01.765Z,8.07
2023-11-11T19:47:28.802Z,7.65
2023-11-11T19:49:55.945Z,7.65
2023-11-11T19:52:22.868Z,8.32
2023-11-11T19:54:49.895Z,8.95
2023-11-11T19:57:16.786Z,8.07
2023-11-11T19:59:45.057Z,8.60
2023-11-11T20:02:12.057Z,9.02
2023-11-11T20:04:40.143Z,9.82
2023-11-11T20:07:06.998Z,7.85
2023-11-11T20:09:37.115Z,9.20
2023-11-11T20:12:05.277Z,9.82
2023-11-11T20:14:32.396Z,9.05
2023-11-11T20:16:59.381Z,10.18
2023-11-11T20:19:27.006Z,9.75
2023-11-11T20:21:54.304Z,8.90
2023-11-11T20:24:21.208Z,9.35
2023-11-11T20:26:48.325Z,9.60
2023-11-11T20:29:15.420Z,9.43
2023-11-11T20:31:42.793Z,9.90
2023-11-11T20:34:09.731Z,9.57
2023-11-11T20:36:36.583Z,10.30
2023-11-11T20:39:04.241Z,9.75
2023-11-11T20:41:43.358Z,10.15
2023-11-11T20:44:10.711Z,9.25
2023-11-11T20:46:37.894Z,10.25
2023-11-11T20:49:04.950Z,11.90
2023-11-11T20:51:34.281Z,9.48
2023-11-11T20:54:02.261Z,10.70
2023-11-11T20:56:29.092Z,10.15
2023-11-11T20:58:56.353Z,9.80
2023-11-11T21:01:23.609Z,10.80
2023-11-11T21:03:50.744Z,11.15
2023-11-11T21:06:17.814Z,10.35
2023-11-11T21:08:45.799Z,11.43
2023-11-11T21:11:14.384Z,10.68
2023-11-11T21:13:41.379Z,11.23
2023-11-11T21:16:08.328Z,10.15
2023-11-11T21:18:35.336Z,11.30
2023-11-11T21:21:02.164Z,11.38
2023-11-11T21:23:29.749Z,12.75
2023-11-11T21:25:56.630Z,13.35
2023-11-11T21:28:23.469Z,13.38
2023-11-11T21:30:54.341Z,15.30
2023-11-11T21:33:21.360Z,15.25
2023-11-11T21:35:49.028Z,17.15
2023-11-11T21:38:17.231Z,17.40
2023-11-11T21:40:47.018Z,15.18
2023-11-11T21:43:14.075Z,16.27
2023-11-11T21:45:41.387Z,17.05
2023-11-11T21:48:08.439Z,17.02
2023-11-11T21:50:35.558Z,16.67
2023-11-11T21:53:02.540Z,16.45
2023-11-11T21:55:32.013Z,17.02
2023-11-11T21:57:59.135Z,16.58
2023-11-11T22:00:26.005Z,15.80
2023-11-11T22:02:53.504Z,16.15
2023-11-11T22:05:20.992Z,15.32
2023-11-11T22:07:48.027Z,15.18
2023-11-11T22:10:15.011Z,15.05
2023-11-11T22:12:42.513Z,15.18
2023-11-11T22:15:09.746Z,16.25
2023-11-11T22:17:37.976Z,15.65
2023-11-11T22:20:07.484Z,17.00
2023-11-11T22:22:38.000Z,17.73
2023-11-11T22:25:09.471Z,16.70
2023-11-11T22:27:37.038Z,16.85
2023-11-11T22:30:09.603Z,15.35
2023-11-11T22:32:37.500Z,15.20
2023-11-11T22:35:04.961Z,16.20
2023-11-11T22:37:31.866Z,15.20
2023-11-11T22:39:58.721Z,15.27
2023-11-11T22:42:25.578Z,15.00
2023-11-11T22:44:52.507Z,15.75
2023-11-11T22:47:19.711Z,15.32
2023-11-11T22:49:48.636Z,16.40
2023-11-11T22:52:15.677Z,17.02
2023-11-11T22:54:42.644Z,17.20
2023-11-11T22:57:09.596Z,18.30
2023-11-11T22:59:38.663Z,19.23
2023-11-11T23:02:05.626Z,17.77
2023-11-11T23:04:32.519Z,18.73
2023-11-11T23:07:01.163Z,17.20
2023-11-11T23:09:28.127Z,18.15
2023-11-11T23:11:55.813Z,19.17
2023-11-11T23:14:22.729Z,20.33
2023-11-11T23:16:49.797Z,19.65
2023-11-11T23:19:16.875Z,19.88
2023-11-11T23:21:43.779Z,20.52
2023-11-11T23:24:10.677Z,20.27
2023-11-11T23:26:37.582Z,19.63
2023-11-11T23:29:04.650Z,18.60
2023-11-11T23:31:31.821Z,20.27
2023-11-11T23:33:58.712Z,20.83
2023-11-11T23:36:25.637Z,19.73
2023-11-11T23:38:52.491Z,20.05
2023-11-11T23:41:19.394Z,19.83
2023-11-11T23:43:46.823Z,21.20
2023-11-11T23:46:14.059Z,20.50
2023-11-11T23:48:41.289Z,21.85
2023-11-11T23:51:09.007Z,21.77
2023-11-11T23:53:36.091Z,21.60
2023-11-11T23:56:03.113Z,21.98
2023-11-11T23:58:40.022Z,21.15
